Time;durP1;ratioP1;P1;durP2;ratioP2;P2;SDS_P1;SDS_P2;PMS_P1;PMS_P2;Temp;Humidity;BMP_temperature;BMP_pressure;BME280_temperature;BME280_humidity;BME280_pressure;Samples;Min_cycle;Max_cycle;Signal;HPM_P1;HPM_P2
2022/11/24 00:02:02;;;;;;;41.33;23.63;;;;;;;;;;4417504;32;20258;-82
2022/11/24 00:04:29;;;;;;;44.73;25.77;;;;;;;;;;4417712;32;20900;-82
2022/11/24 00:06:55;;;;;;;43.27;24.00;;;;;;;;;;4418241;32;20735;-84
2022/11/24 00:09:22;;;;;;;41.27;22.07;;;;;;;;;;4417936;32;20261;-85
2022/11/24 00:11:49;;;;;;;42.37;24.50;;;;;;;;;;4417658;32;20307;-82
2022/11/24 00:14:16;;;;;;;63.87;29.23;;;;;;;;;;4417525;32;20617;-84
2022/11/24 00:16:46;;;;;;;65.57;34.17;;;;;;;;;;4417382;32;20268;-81
2022/11/24 00:19:12;;;;;;;78.30;37.33;;;;;;;;;;4417516;32;20263;-84
2022/11/24 00:21:39;;;;;;;55.80;30.00;;;;;;;;;;4418037;32;20255;-81
2022/11/24 00:24:06;;;;;;;67.17;35.03;;;;;;;;;;4417700;32;20301;-81
2022/11/24 00:26:36;;;;;;;60.37;31.87;;;;;;;;;;4417641;32;20229;-81
2022/11/24 00:29:05;;;;;;;67.60;35.77;;;;;;;;;;4417385;32;20621;-81
2022/11/24 00:31:33;;;;;;;61.40;31.20;;;;;;;;;;4418093;32;20225;-86
2022/11/24 00:34:03;;;;;;;50.30;28.63;;;;;;;;;;4417289;32;20320;-84
2022/11/24 00:36:32;;;;;;;88.53;42.77;;;;;;;;;;4417577;32;20314;-85
2022/11/24 00:39:00;;;;;;;44.17;24.90;;;;;;;;;;4417712;32;20328;-81
2022/11/24 00:41:29;;;;;;;34.57;19.07;;;;;;;;;;4417380;32;20225;-83
2022/11/24 00:43:56;;;;;;;41.93;22.80;;;;;;;;;;4417525;32;20671;-84
2022/11/24 00:46:23;;;;;;;30.43;16.73;;;;;;;;;;4417818;32;20228;-84
2022/11/24 00:48:50;;;;;;;34.53;20.63;;;;;;;;;;4420416;32;20682;-83
2022/11/24 00:51:19;;;;;;;40.70;22.47;;;;;;;;;;4420407;32;20278;-85
2022/11/24 00:53:46;;;;;;;65.43;35.10;;;;;;;;;;4416090;32;20257;-83
2022/11/24 00:56:13;;;;;;;66.27;31.97;;;;;;;;;;4404921;32;20340;-82
2022/11/24 00:58:40;;;;;;;36.93;21.20;;;;;;;;;;4405207;32;20307;-82
2022/11/24 01:01:10;;;;;;;48.73;23.83;;;;;;;;;;4404805;32;20306;-84
2022/11/24 01:03:37;;;;;;;46.50;22.80;;;;;;;;;;4405291;32;20240;-85
2022/11/24 01:06:05;;;;;;;28.40;16.67;;;;;;;;;;4405158;32;20239;-82
2022/11/24 01:08:33;;;;;;;30.20;14.33;;;;;;;;;;4420346;32;20269;-83
2022/11/24 01:11:11;;;;;;;28.90;15.07;;;;;;;;;;4420298;32;20603;-82
2022/11/24 01:13:38;;;;;;;27.13;16.50;;;;;;;;;;4420480;32;20285;-84
2022/11/24 01:16:05;;;;;;;32.13;17.43;;;;;;;;;;4420085;32;20237;-83
2022/11/24 01:18:32;;;;;;;34.43;17.80;;;;;;;;;;4419807;32;20253;-82
2022/11/24 01:21:03;;;;;;;30.73;18.83;;;;;;;;;;4419867;32;20794;-84
2022/11/24 01:23:29;;;;;;;33.97;21.80;;;;;;;;;;4420007;32;20322;-82
2022/11/24 01:25:58;;;;;;;31.93;19.30;;;;;;;;;;4420258;32;20678;-82
2022/11/24 01:28:25;;;;;;;32.17;20.13;;;;;;;;;;4412496;32;20256;-84
2022/11/24 01:30:57;;;;;;;34.07;18.97;;;;;;;;;;4404756;32;20253;-85
2022/11/24 01:33:24;;;;;;;31.30;18.93;;;;;;;;;;4404732;32;20253;-85
2022/11/24 01:35:51;;;;;;;31.67;18.67;;;;;;;;;;4404889;32;20226;-85
2022/11/24 01:38:18;;;;;;;41.03;21.70;;;;;;;;;;4404633;32;20279;-85
2022/11/24 01:40:45;;;;;;;47.57;26.20;;;;;;;;;;4404753;32;20256;-82
2022/11/24 01:43:18;;;;;;;57.43;32.27;;;;;;;;;;4404003;32;20240;-85
2022/11/24 01:45:46;;;;;;;46.10;25.10;;;;;;;;;;4404877;32;20263;-83
2022/11/24 01:48:18;;;;;;;43.53;24.77;;;;;;;;;;4404480;32;20283;-83
2022/11/24 01:50:46;;;;;;;47.37;28.07;;;;;;;;;;4404714;32;20244;-85
2022/11/24 01:53:15;;;;;;;44.70;26.43;;;;;;;;;;4416891;32;20225;-82
2022/11/24 01:55:42;;;;;;;41.53;26.00;;;;;;;;;;4419621;32;20543;-84
2022/11/24 01:58:14;;;;;;;53.67;26.97;;;;;;;;;;4418764;32;20624;-82
2022/11/24 02:00:45;;;;;;;42.23;24.77;;;;;;;;;;4419351;32;20298;-83
2022/11/24 02:03:15;;;;;;;45.50;25.33;;;;;;;;;;4419479;32;20220;-85
2022/11/24 02:05:48;;;;;;;42.73;24.30;;;;;;;;;;4419728;32;20247;-82
2022/11/24 02:08:22;;;;;;;39.10;22.70;;;;;;;;;;4419419;32;20266;-83
2022/11/24 02:10:49;;;;;;;23.80;14.47;;;;;;;;;;4419336;32;20323;-83
2022/11/24 02:13:16;;;;;;;35.57;15.57;;;;;;;;;;4419369;32;20274;-82
2022/11/24 02:15:44;;;;;;;33.57;18.67;;;;;;;;;;4419364;32;20261;-82
2022/11/24 02:18:11;;;;;;;21.40;13.73;;;;;;;;;;4419031;32;20232;-83
2022/11/24 02:20:38;;;;;;;11.47;8.77;;;;;;;;;;4421709;32;20217;-82
2022/11/24 02:23:14;;;;;;;18.23;10.53;;;;;;;;;;4434832;32;20236;-82
2022/11/24 02:25:51;;;;;;;17.10;9.23;;;;;;;;;;4435428;32;20253;-87
2022/11/24 02:28:22;;;;;;;21.37;11.00;;;;;;;;;;4421056;32;20281;-87
2022/11/24 02:30:50;;;;;;;15.10;10.27;;;;;;;;;;4410154;32;20231;-85
2022/11/24 02:33:17;;;;;;;17.43;10.17;;;;;;;;;;4404750;32;20264;-84
2022/11/24 02:35:44;;;;;;;17.37;10.70;;;;;;;;;;4404407;32;20608;-82
2022/11/24 02:38:12;;;;;;;21.90;12.30;;;;;;;;;;4410949;32;20290;-85
2022/11/24 02:40:41;;;;;;;21.33;11.17;;;;;;;;;;4419184;32;20754;-84
2022/11/24 02:43:13;;;;;;;20.63;11.60;;;;;;;;;;4419141;32;20883;-84
2022/11/24 02:45:43;;;;;;;20.63;12.20;;;;;;;;;;4419209;32;20356;-84
2022/11/24 02:48:10;;;;;;;13.40;8.97;;;;;;;;;;4411756;32;20406;-87
2022/11/24 02:50:37;;;;;;;18.27;10.73;;;;;;;;;;4417425;32;20228;-82
2022/11/24 02:53:04;;;;;;;16.70;10.17;;;;;;;;;;4418684;32;20272;-85
2022/11/24 02:55:31;;;;;;;23.53;11.60;;;;;;;;;;4418459;32;20262;-83
2022/11/24 02:57:58;;;;;;;23.33;13.80;;;;;;;;;;4418721;32;20225;-84
2022/11/24 03:00:25;;;;;;;22.50;14.97;;;;;;;;;;4418401;32;20740;-82
2022/11/24 03:02:53;;;;;;;29.37;16.73;;;;;;;;;;4419072;32;20221;-84
2022/11/24 03:05:20;;;;;;;37.20;20.77;;;;;;;;;;4418408;32;20742;-83
2022/11/24 03:07:47;;;;;;;36.70;23.23;;;;;;;;;;4418422;32;20783;-82
2022/11/24 03:10:15;;;;;;;43.27;24.93;;;;;;;;;;4417784;32;20251;-83
2022/11/24 03:12:42;;;;;;;38.23;20.03;;;;;;;;;;4418529;32;20241;-84
2022/11/24 03:15:09;;;;;;;34.73;20.40;;;;;;;;;;4418191;32;20249;-81
2022/11/24 03:17:36;;;;;;;34.50;20.37;;;;;;;;;;4418331;32;20274;-83
2022/11/24 03:20:05;;;;;;;34.50;20.63;;;;;;;;;;4418091;32;20318;-81
2022/11/24 03:22:32;;;;;;;35.60;21.77;;;;;;;;;;4418607;32;20278;-82
2022/11/24 03:24:59;;;;;;;38.20;22.80;;;;;;;;;;4418165;32;20337;-81
2022/11/24 03:27:25;;;;;;;37.40;21.03;;;;;;;;;;4418558;32;20263;-81
2022/11/24 03:29:52;;;;;;;40.17;20.23;;;;;;;;;;4418213;32;20267;-84
2022/11/24 03:32:19;;;;;;;39.60;22.33;;;;;;;;;;4418369;32;20290;-82
2022/11/24 03:34:46;;;;;;;39.13;22.37;;;;;;;;;;4418120;32;20241;-84
2022/11/24 03:37:14;;;;;;;45.03;23.60;;;;;;;;;;4418694;32;20240;-81
2022/11/24 03:39:41;;;;;;;44.53;26.57;;;;;;;;;;4418548;32;20339;-82
2022/11/24 03:42:08;;;;;;;42.80;24.83;;;;;;;;;;4418227;32;20228;-83
2022/11/24 03:44:34;;;;;;;40.70;24.33;;;;;;;;;;4418915;32;20253;-81
2022/11/24 03:47:01;;;;;;;42.17;25.73;;;;;;;;;;4419406;32;20346;-82
2022/11/24 03:49:28;;;;;;;36.13;22.33;;;;;;;;;;4419552;32;20624;-84
2022/11/24 03:51:54;;;;;;;40.00;20.47;;;;;;;;;;4418921;32;20220;-84
2022/11/24 03:54:23;;;;;;;37.33;21.70;;;;;;;;;;4410301;32;20385;-82
2022/11/24 03:56:49;;;;;;;33.97;19.60;;;;;;;;;;4402698;32;20267;-81
2022/11/24 03:59:18;;;;;;;37.30;19.90;;;;;;;;;;4403298;32;20330;-84
2022/11/24 04:01:45;;;;;;;33.63;21.47;;;;;;;;;;4402549;32;20229;-84
2022/11/24 04:04:11;;;;;;;48.90;25.17;;;;;;;;;;4402799;32;20405;-81
2022/11/24 04:06:38;;;;;;;42.40;25.63;;;;;;;;;;4402593;32;20646;-84
2022/11/24 04:09:05;;;;;;;44.10;23.87;;;;;;;;;;4402736;32;20240;-85
2022/11/24 04:14:18;;;;;;;42.67;21.17;;;;;;;;;;4417740;32;20302;-83
2022/11/24 04:16:45;;;;;;;33.60;19.90;;;;;;;;;;4417601;32;20278;-84
2022/11/24 04:19:11;;;;;;;29.93;17.20;;;;;;;;;;4417408;32;20849;-84
2022/11/24 04:21:38;;;;;;;31.13;15.53;;;;;;;;;;4419618;32;20262;-81
2022/11/24 04:24:06;;;;;;;26.27;14.00;;;;;;;;;;4420740;32;20241;-84
2022/11/24 04:26:34;;;;;;;27.80;14.70;;;;;;;;;;4420512;32;20256;-82
2022/11/24 04:29:00;;;;;;;28.77;15.93;;;;;;;;;;4420712;32;20241;-81
2022/11/24 04:31:27;;;;;;;25.30;16.33;;;;;;;;;;4420486;32;20241;-83
2022/11/24 04:33:57;;;;;;;28.93;17.90;;;;;;;;;;4420595;32;20329;-80
2022/11/24 04:36:23;;;;;;;26.53;17.30;;;;;;;;;;4420655;32;20243;-80
2022/11/24 04:38:52;;;;;;;29.40;19.47;;;;;;;;;;4420616;32;20240;-83
2022/11/24 04:41:19;;;;;;;33.90;22.83;;;;;;;;;;4412043;32;20245;-83
2022/11/24 04:43:50;;;;;;;24.90;16.07;;;;;;;;;;4420553;32;20716;-84
2022/11/24 04:46:17;;;;;;;28.67;15.53;;;;;;;;;;4420795;32;20220;-83
2022/11/24 04:48:46;;;;;;;28.47;15.87;;;;;;;;;;4420396;32;20236;-82
2022/11/24 04:51:16;;;;;;;31.57;17.03;;;;;;;;;;4420373;32;20627;-82
2022/11/24 04:53:42;;;;;;;28.37;15.13;;;;;;;;;;4416198;32;20270;-86
2022/11/24 04:56:10;;;;;;;21.90;15.33;;;;;;;;;;4405053;32;20598;-84
2022/11/24 04:58:37;;;;;;;24.57;16.50;;;;;;;;;;4405283;32;20277;-84
2022/11/24 05:01:08;;;;;;;31.43;18.00;;;;;;;;;;4404973;32;20689;-80
2022/11/24 05:03:44;;;;;;;33.37;17.60;;;;;;;;;;4405475;32;20768;-85
2022/11/24 05:06:11;;;;;;;24.63;17.33;;;;;;;;;;4405493;32;20319;-82
2022/11/24 05:08:38;;;;;;;35.33;18.73;;;;;;;;;;4404753;32;20288;-81
2022/11/24 05:11:07;;;;;;;26.27;18.27;;;;;;;;;;4416427;32;20701;-81
2022/11/24 05:13:34;;;;;;;45.37;20.93;;;;;;;;;;4420299;32;20236;-84
2022/11/24 05:16:01;;;;;;;39.53;20.37;;;;;;;;;;4420058;32;20685;-83
2022/11/24 05:18:29;;;;;;;41.63;22.20;;;;;;;;;;4420500;32;20236;-84
2022/11/24 05:20:57;;;;;;;46.70;27.37;;;;;;;;;;4419882;32;20665;-83
2022/11/24 05:23:24;;;;;;;34.03;20.37;;;;;;;;;;4420073;32;20330;-83
2022/11/24 05:25:51;;;;;;;31.17;18.30;;;;;;;;;;4419870;32;20225;-83
2022/11/24 05:28:19;;;;;;;30.40;18.27;;;;;;;;;;4420004;32;20244;-83
2022/11/24 05:30:46;;;;;;;25.70;16.30;;;;;;;;;;4420204;32;20232;-82
2022/11/24 05:33:17;;;;;;;26.23;14.83;;;;;;;;;;4418816;32;20248;-82
2022/11/24 05:35:46;;;;;;;42.73;20.03;;;;;;;;;;4419930;32;20739;-83
2022/11/24 05:38:12;;;;;;;45.13;24.23;;;;;;;;;;4404459;32;20381;-83
2022/11/24 05:40:39;;;;;;;32.13;21.60;;;;;;;;;;4404641;32;20288;-84
2022/11/24 05:43:10;;;;;;;28.83;20.03;;;;;;;;;;4405023;32;20221;-82
2022/11/24 05:45:37;;;;;;;59.07;25.30;;;;;;;;;;4404524;32;20236;-83
2022/11/24 05:48:06;;;;;;;34.53;20.70;;;;;;;;;;4404570;32;20213;-82
2022/11/24 05:50:34;;;;;;;38.87;22.10;;;;;;;;;;4404485;32;20220;-82
2022/11/24 05:53:04;;;;;;;42.90;22.17;;;;;;;;;;4404317;32;20277;-85
2022/11/24 05:55:31;;;;;;;36.43;19.97;;;;;;;;;;4404272;32;20228;-84
2022/11/24 05:58:00;;;;;;;39.30;20.40;;;;;;;;;;4404222;32;20229;-82
2022/11/24 06:00:27;;;;;;;51.27;27.70;;;;;;;;;;4403522;32;20428;-84
2022/11/24 06:02:54;;;;;;;53.73;29.93;;;;;;;;;;4403431;32;20252;-84
2022/11/24 06:05:21;;;;;;;55.87;28.70;;;;;;;;;;4403503;32;20287;-83
2022/11/24 06:07:49;;;;;;;52.83;29.50;;;;;;;;;;4403477;32;20217;-84
2022/11/24 06:10:18;;;;;;;77.00;32.80;;;;;;;;;;4403207;32;20283;-82
2022/11/24 06:12:45;;;;;;;53.53;32.67;;;;;;;;;;4404085;32;20304;-85
2022/11/24 06:15:12;;;;;;;65.53;35.30;;;;;;;;;;4406301;32;20351;-83
2022/11/24 06:17:39;;;;;;;65.27;34.07;;;;;;;;;;4415868;32;20302;-84
2022/11/24 06:20:08;;;;;;;82.00;51.37;;;;;;;;;;4421472;32;20219;-83
2022/11/24 06:22:35;;;;;;;85.60;46.43;;;;;;;;;;4421139;32;20244;-82
2022/11/24 06:25:02;;;;;;;77.63;45.40;;;;;;;;;;4429683;32;20249;-84
2022/11/24 06:27:32;;;;;;;76.20;42.33;;;;;;;;;;4424080;32;20258;-81
2022/11/24 06:29:59;;;;;;;72.33;44.63;;;;;;;;;;4419734;32;20629;-82
2022/11/24 06:32:26;;;;;;;78.87;48.17;;;;;;;;;;4416177;32;20236;-83
2022/11/24 06:34:55;;;;;;;90.80;53.27;;;;;;;;;;4403470;32;20701;-81
2022/11/24 06:37:22;;;;;;;82.60;48.07;;;;;;;;;;4404532;32;20299;-81
2022/11/24 06:39:49;;;;;;;74.03;42.50;;;;;;;;;;4404321;32;20261;-85
2022/11/24 06:42:17;;;;;;;69.53;38.50;;;;;;;;;;4403366;32;20249;-82
2022/11/24 06:44:48;;;;;;;60.53;37.47;;;;;;;;;;4403134;32;20260;-87
2022/11/24 06:47:15;;;;;;;58.60;36.10;;;;;;;;;;4417187;32;20661;-82
2022/11/24 06:49:42;;;;;;;59.97;35.67;;;;;;;;;;4417672;32;20364;-81
2022/11/24 06:52:09;;;;;;;66.00;40.27;;;;;;;;;;4415990;32;20311;-82
2022/11/24 06:54:36;;;;;;;62.80;38.60;;;;;;;;;;4411772;32;20256;-84
2022/11/24 06:57:03;;;;;;;65.87;36.53;;;;;;;;;;4418593;32;20278;-81
2022/11/24 06:59:30;;;;;;;72.70;36.17;;;;;;;;;;4417725;32;20244;-83
2022/11/24 07:01:58;;;;;;;60.13;33.63;;;;;;;;;;4418164;32;20217;-82
2022/11/24 07:04:25;;;;;;;51.30;32.77;;;;;;;;;;4414074;32;20307;-83
2022/11/24 07:06:51;;;;;;;61.50;34.33;;;;;;;;;;4403409;32;20244;-90
2022/11/24 07:09:19;;;;;;;70.30;41.97;;;;;;;;;;4403072;32;20232;-85
2022/11/24 07:11:46;;;;;;;76.13;52.43;;;;;;;;;;4417972;32;20241;-81
2022/11/24 07:14:13;;;;;;;95.27;59.93;;;;;;;;;;4417990;32;20294;-84
2022/11/24 07:16:40;;;;;;;89.80;58.57;;;;;;;;;;4417626;32;20725;-83
2022/11/24 07:19:09;;;;;;;101.17;61.37;;;;;;;;;;4417572;32;20295;-79
2022/11/24 07:21:36;;;;;;;97.50;60.23;;;;;;;;;;4417634;32;20248;-82
2022/11/24 07:24:08;;;;;;;92.80;59.20;;;;;;;;;;4417547;32;20263;-82
2022/11/24 07:26:36;;;;;;;91.80;54.17;;;;;;;;;;4418048;32;20370;-83
2022/11/24 07:29:03;;;;;;;89.87;57.40;;;;;;;;;;4413114;32;20725;-83
2022/11/24 07:31:31;;;;;;;92.77;62.53;;;;;;;;;;4413156;32;20302;-84
2022/11/24 07:33:58;;;;;;;104.70;64.20;;;;;;;;;;4417052;32;20652;-83
2022/11/24 07:36:26;;;;;;;93.90;63.43;;;;;;;;;;4402596;32;20248;-83
2022/11/24 07:38:52;;;;;;;106.63;62.40;;;;;;;;;;4402328;32;20377;-81
2022/11/24 07:41:22;;;;;;;87.23;60.53;;;;;;;;;;4416866;32;20205;-82
2022/11/24 07:43:49;;;;;;;82.90;50.30;;;;;;;;;;4417478;32;20362;-84
2022/11/24 07:46:18;;;;;;;82.77;55.17;;;;;;;;;;4417272;32;20237;-81
2022/11/24 07:48:45;;;;;;;74.50;45.00;;;;;;;;;;4417497;32;20263;-85
2022/11/24 07:51:12;;;;;;;73.37;45.13;;;;;;;;;;4417093;32;20280;-85
2022/11/24 07:53:40;;;;;;;70.93;46.90;;;;;;;;;;4405362;32;20863;-83
2022/11/24 07:56:09;;;;;;;71.30;46.10;;;;;;;;;;4401649;32;20285;-84
2022/11/24 07:58:37;;;;;;;76.33;48.00;;;;;;;;;;4402339;32;20361;-80
2022/11/24 08:01:12;;;;;;;113.47;64.23;;;;;;;;;;4415774;32;20232;-84
2022/11/24 08:03:39;;;;;;;127.53;75.93;;;;;;;;;;4416857;32;20782;-87
2022/11/24 08:06:06;;;;;;;114.37;71.77;;;;;;;;;;4417396;32;20672;-82
2022/11/24 08:08:33;;;;;;;104.70;64.53;;;;;;;;;;4417350;32;20264;-87
2022/11/24 08:11:09;;;;;;;89.00;53.23;;;;;;;;;;4416813;32;20256;-81
2022/11/24 08:13:36;;;;;;;78.80;51.47;;;;;;;;;;4418034;32;20240;-85
2022/11/24 08:16:09;;;;;;;77.00;50.47;;;;;;;;;;4417941;32;20256;-86
2022/11/24 08:18:36;;;;;;;70.47;47.10;;;;;;;;;;4417998;32;20282;-80
2022/11/24 08:21:04;;;;;;;73.93;49.77;;;;;;;;;;4417788;32;20286;-82
2022/11/24 08:23:31;;;;;;;61.50;44.40;;;;;;;;;;4417820;32;20252;-81
2022/11/24 08:26:03;;;;;;;67.67;42.90;;;;;;;;;;4419494;32;20254;-82
2022/11/24 08:28:32;;;;;;;59.53;38.33;;;;;;;;;;4413747;32;20604;-81
2022/11/24 08:31:04;;;;;;;50.23;29.87;;;;;;;;;;4419420;32;20304;-82
2022/11/24 08:33:31;;;;;;;36.13;22.60;;;;;;;;;;4419436;32;20673;-82
2022/11/24 08:36:03;;;;;;;34.53;22.30;;;;;;;;;;4417956;32;20305;-81
2022/11/24 08:38:30;;;;;;;39.10;23.87;;;;;;;;;;4419907;32;20228;-81
2022/11/24 08:41:00;;;;;;;38.30;23.93;;;;;;;;;;4418949;32;20311;-82
2022/11/24 08:43:27;;;;;;;55.40;24.90;;;;;;;;;;4419079;32;20290;-81
2022/11/24 08:45:58;;;;;;;35.33;20.43;;;;;;;;;;4418609;32;20299;-82
2022/11/24 08:48:25;;;;;;;30.87;19.83;;;;;;;;;;4417591;32;20333;-84
2022/11/24 08:50:52;;;;;;;26.63;20.13;;;;;;;;;;4417264;32;20294;-83
2022/11/24 08:53:19;;;;;;;30.97;20.40;;;;;;;;;;4415426;27;20634;-94
2022/11/24 08:55:46;;;;;;;31.20;21.00;;;;;;;;;;4406655;27;20276;-93
2022/11/24 08:58:18;;;;;;;28.97;20.77;;;;;;;;;;4410084;27;20217;-89
2022/11/24 09:00:45;;;;;;;43.47;20.43;;;;;;;;;;4408775;27;20289;-90
2022/11/24 09:03:16;;;;;;;40.77;18.90;;;;;;;;;;4403611;32;20271;-80
2022/11/24 09:05:43;;;;;;;27.97;15.80;;;;;;;;;;4403667;32;20241;-90
2022/11/24 09:08:09;;;;;;;40.80;18.23;;;;;;;;;;4403706;32;20216;-88
2022/11/24 09:10:36;;;;;;;23.47;17.03;;;;;;;;;;4404549;32;20354;-83
2022/11/24 09:13:04;;;;;;;34.17;19.30;;;;;;;;;;4406053;32;20221;-83
2022/11/24 09:15:30;;;;;;;42.30;19.63;;;;;;;;;;4406244;32;20306;-85
2022/11/24 09:17:57;;;;;;;27.17;18.43;;;;;;;;;;4405193;32;20332;-92
2022/11/24 09:20:25;;;;;;;35.97;17.57;;;;;;;;;;4405780;32;20601;-88
2022/11/24 09:22:52;;;;;;;34.73;17.27;;;;;;;;;;4404054;32;20241;-84
2022/11/24 09:25:19;;;;;;;24.93;16.47;;;;;;;;;;4399362;32;20330;-86
2022/11/24 09:27:45;;;;;;;22.50;13.47;;;;;;;;;;4392421;32;20325;-86
2022/11/24 09:30:13;;;;;;;34.57;16.20;;;;;;;;;;4390590;32;20226;-86
2022/11/24 09:32:40;;;;;;;26.83;16.03;;;;;;;;;;4395464;32;20288;-86
2022/11/24 09:35:07;;;;;;;29.23;14.57;;;;;;;;;;4405022;32;20642;-83
2022/11/24 09:37:35;;;;;;;26.93;18.17;;;;;;;;;;4414457;32;20245;-83
2022/11/24 09:40:02;;;;;;;35.87;17.53;;;;;;;;;;4419011;32;20653;-85
2022/11/24 09:42:39;;;;;;;35.83;18.53;;;;;;;;;;4419072;32;20304;-84
2022/11/24 09:45:16;;;;;;;41.43;20.43;;;;;;;;;;4419496;32;20228;-85
2022/11/24 09:47:59;;;;;;;36.27;21.83;;;;;;;;;;4419417;32;20240;-86
2022/11/24 09:50:28;;;;;;;36.90;21.07;;;;;;;;;;4417068;32;20252;-84
2022/11/24 09:53:02;;;;;;;40.53;21.17;;;;;;;;;;4404706;32;20249;-84
2022/11/24 09:55:37;;;;;;;47.40;22.00;;;;;;;;;;4403332;32;20255;-83
2022/11/24 09:58:28;;;;;;;38.30;22.70;;;;;;;;;;4403249;32;20251;-84
2022/11/24 10:00:56;;;;;;;45.50;24.40;;;;;;;;;;4394067;32;20265;-84
2022/11/24 10:03:29;;;;;;;48.47;22.00;;;;;;;;;;4403804;32;20668;-86
2022/11/24 10:05:59;;;;;;;49.27;27.93;;;;;;;;;;4404032;32;20330;-86
2022/11/24 10:08:42;;;;;;;55.47;33.83;;;;;;;;;;4412852;32;20323;-84
2022/11/24 10:11:13;;;;;;;53.40;30.47;;;;;;;;;;4433507;32;20232;-84
2022/11/24 10:14:12;;;;;;;69.70;34.20;;;;;;;;;;4436355;32;20245;-82
2022/11/24 10:16:50;;;;;;;65.47;40.47;;;;;;;;;;4432604;32;20228;-86
2022/11/24 10:19:29;;;;;;;54.83;34.33;;;;;;;;;;4421492;32;20233;-84
2022/11/24 10:22:08;;;;;;;39.23;25.87;;;;;;;;;;4410922;32;20229;-82
2022/11/24 10:25:12;;;;;;;40.43;27.07;;;;;;;;;;4410704;32;20638;-83
2022/11/24 10:27:44;;;;;;;46.80;23.70;;;;;;;;;;4398616;32;20256;-83
2022/11/24 10:30:16;;;;;;;38.13;23.57;;;;;;;;;;4408594;32;20225;-84
2022/11/24 10:32:46;;;;;;;39.67;24.03;;;;;;;;;;4408331;32;20648;-85
2022/11/24 10:35:16;;;;;;;41.10;25.43;;;;;;;;;;4407698;32;20952;-83
2022/11/24 10:37:53;;;;;;;42.93;25.60;;;;;;;;;;4418355;32;20229;-85
2022/11/24 10:40:27;;;;;;;40.53;25.70;;;;;;;;;;4424701;32;20232;-87
2022/11/24 10:42:54;;;;;;;47.73;31.43;;;;;;;;;;4424210;32;20267;-84
2022/11/24 10:45:22;;;;;;;52.33;30.00;;;;;;;;;;4424155;32;20253;-84
2022/11/24 10:47:49;;;;;;;68.50;30.70;;;;;;;;;;4421616;32;20319;-84
2022/11/24 10:50:21;;;;;;;54.50;29.73;;;;;;;;;;4418891;32;20228;-85
2022/11/24 10:52:55;;;;;;;56.73;30.23;;;;;;;;;;4418189;32;20249;-83
2022/11/24 10:55:24;;;;;;;59.63;33.43;;;;;;;;;;4403991;32;20260;-81
2022/11/24 10:57:51;;;;;;;64.03;37.30;;;;;;;;;;4404226;32;20262;-84
2022/11/24 11:00:36;;;;;;;67.50;40.63;;;;;;;;;;4407940;32;20312;-80
2022/11/24 11:03:18;;;;;;;51.07;32.00;;;;;;;;;;4404983;32;20253;-80
2022/11/24 11:05:50;;;;;;;53.77;32.60;;;;;;;;;;4414338;27;20249;-81
2022/11/24 11:08:21;;;;;;;56.90;32.20;;;;;;;;;;4404181;32;20217;-80
2022/11/24 11:10:51;;;;;;;71.03;39.40;;;;;;;;;;4408676;27;20627;-81
2022/11/24 11:13:26;;;;;;;65.07;38.07;;;;;;;;;;4406793;32;20218;-83
2022/11/24 11:18:19;;;;;;;51.33;31.47;;;;;;;;;;4409972;27;20261;-84
2022/11/24 11:20:52;;;;;;;57.63;31.17;;;;;;;;;;4403366;32;20249;-85
2022/11/24 11:23:26;;;;;;;51.93;29.87;;;;;;;;;;4402479;32;20237;-86
2022/11/24 11:26:17;;;;;;;53.40;29.30;;;;;;;;;;4403452;32;20238;-84
2022/11/24 11:28:57;;;;;;;41.27;26.17;;;;;;;;;;4398801;32;20320;-83
2022/11/24 11:31:24;;;;;;;34.77;19.67;;;;;;;;;;4387909;32;20762;-85
2022/11/24 11:33:59;;;;;;;30.37;17.90;;;;;;;;;;4403186;32;20718;-84
2022/11/24 11:36:28;;;;;;;28.70;15.90;;;;;;;;;;4406462;32;20290;-84
2022/11/24 11:38:55;;;;;;;45.90;28.77;;;;;;;;;;4417369;32;20403;-84
2022/11/24 11:41:28;;;;;;;63.87;35.00;;;;;;;;;;4417796;32;20268;-83
2022/11/24 11:44:04;;;;;;;59.60;33.10;;;;;;;;;;4418663;32;20287;-83
2022/11/24 11:46:32;;;;;;;40.93;24.80;;;;;;;;;;4419677;32;20268;-84
2022/11/24 11:49:00;;;;;;;53.70;33.10;;;;;;;;;;4417765;32;20252;-85
2022/11/24 11:51:48;;;;;;;57.73;33.33;;;;;;;;;;4411269;32;20256;-85
2022/11/24 11:54:26;;;;;;;63.70;36.30;;;;;;;;;;4409467;32;20651;-88
2022/11/24 11:57:06;;;;;;;71.97;39.67;;;;;;;;;;4417395;32;20290;-84
2022/11/24 11:59:55;;;;;;;55.20;33.20;;;;;;;;;;4418123;32;20653;-82
2022/11/24 12:02:49;;;;;;;26.10;15.57;;;;;;;;;;4417607;32;20286;-83
2022/11/24 12:05:22;;;;;;;29.53;14.03;;;;;;;;;;4417934;32;20225;-83
2022/11/24 12:08:01;;;;;;;21.50;12.97;;;;;;;;;;4417065;32;20239;-83
2022/11/24 12:10:36;;;;;;;31.57;20.23;;;;;;;;;;4404258;32;20229;-86
2022/11/24 12:14:08;;;;;;;27.80;15.90;;;;;;;;;;4417289;32;20634;-84
2022/11/24 12:16:45;;;;;;;29.00;16.07;;;;;;;;;;4310665;33;20786;-82
2022/11/24 12:19:26;;;;;;;25.07;14.50;;;;;;;;;;4311119;33;20746;-84
2022/11/24 12:22:01;;;;;;;29.80;16.57;;;;;;;;;;4311433;33;20266;-84
2022/11/24 12:24:38;;;;;;;27.87;16.47;;;;;;;;;;4312601;33;20332;-84
2022/11/24 12:27:14;;;;;;;37.47;24.87;;;;;;;;;;4313964;33;20832;-84
2022/11/24 12:30:16;;;;;;;64.93;38.33;;;;;;;;;;4365504;32;20455;-83
2022/11/24 12:33:12;;;;;;;48.20;30.20;;;;;;;;;;4361794;32;20273;-83
2022/11/24 12:35:43;;;;;;;56.63;29.10;;;;;;;;;;4410671;32;20657;-85
2022/11/24 12:38:32;;;;;;;36.93;21.50;;;;;;;;;;4403190;32;20245;-85
2022/11/24 12:41:12;;;;;;;33.47;20.23;;;;;;;;;;4402570;32;20652;-83
2022/11/24 12:43:41;;;;;;;30.10;19.97;;;;;;;;;;4405992;32;20217;-86
2022/11/24 12:46:17;;;;;;;30.97;17.77;;;;;;;;;;4405618;32;20902;-83
2022/11/24 12:48:53;;;;;;;26.33;15.57;;;;;;;;;;4405542;32;20551;-84
2022/11/24 12:51:23;;;;;;;27.67;18.40;;;;;;;;;;4405289;32;20588;-84
2022/11/24 12:53:52;;;;;;;26.67;17.63;;;;;;;;;;4412764;32;20237;-84
2022/11/24 12:56:28;;;;;;;38.13;17.83;;;;;;;;;;4408563;32;20229;-85
2022/11/24 12:59:02;;;;;;;17.83;12.57;;;;;;;;;;4421344;32;20365;-83
2022/11/24 13:01:36;;;;;;;12.73;9.10;;;;;;;;;;4420601;32;20278;-84
2022/11/24 13:04:10;;;;;;;13.60;8.33;;;;;;;;;;4420449;32;20274;-85
2022/11/24 13:06:47;;;;;;;12.80;6.77;;;;;;;;;;4420351;32;20487;-83
2022/11/24 13:09:15;;;;;;;12.63;6.37;;;;;;;;;;4420140;32;20765;-83
2022/11/24 13:11:44;;;;;;;15.10;6.90;;;;;;;;;;4404894;32;20288;-85
2022/11/24 13:14:20;;;;;;;14.03;7.73;;;;;;;;;;4404868;32;20221;-85
2022/11/24 13:16:59;;;;;;;15.00;8.23;;;;;;;;;;4417313;32;20316;-84
2022/11/24 13:19:29;;;;;;;25.40;9.73;;;;;;;;;;4420281;32;20225;-82
2022/11/24 13:22:13;;;;;;;17.73;6.93;;;;;;;;;;4413043;32;20279;-83
2022/11/24 13:24:43;;;;;;;15.30;7.87;;;;;;;;;;4405159;32;20240;-84
2022/11/24 13:27:28;;;;;;;19.77;8.40;;;;;;;;;;4404389;32;20304;-85
2022/11/24 13:29:55;;;;;;;21.17;9.80;;;;;;;;;;4404870;32;20538;-87
2022/11/24 13:33:18;;;;;;;16.43;11.27;;;;;;;;;;4404671;32;20234;-85
2022/11/24 13:36:28;;;;;;;13.90;10.30;;;;;;;;;;4404920;32;20304;-87
2022/11/24 13:38:55;;;;;;;28.57;13.73;;;;;;;;;;4404256;32;20361;-82
2022/11/24 13:42:11;;;;;;;20.60;11.57;;;;;;;;;;4404605;32;20299;-84
2022/11/24 13:44:51;;;;;;;13.37;8.20;;;;;;;;;;4404969;32;20294;-84
2022/11/24 13:47:41;;;;;;;11.57;8.27;;;;;;;;;;4404237;32;20268;-84
2022/11/24 13:50:23;;;;;;;22.90;12.00;;;;;;;;;;4404492;32;20240;-85
2022/11/24 13:52:59;;;;;;;23.73;16.37;;;;;;;;;;4410739;32;20293;-88
2022/11/24 13:55:30;;;;;;;40.10;19.63;;;;;;;;;;4419534;32;20256;-86
2022/11/24 13:58:02;;;;;;;29.60;16.00;;;;;;;;;;4420173;32;20228;-85
2022/11/24 14:00:30;;;;;;;26.33;16.03;;;;;;;;;;4420079;32;20278;-88
2022/11/24 14:03:01;;;;;;;28.50;17.27;;;;;;;;;;4419466;32;20233;-85
2022/11/24 14:05:36;;;;;;;29.37;16.90;;;;;;;;;;4414771;32;20263;-90
2022/11/24 14:08:05;;;;;;;26.10;15.93;;;;;;;;;;4423877;32;20217;-88
2022/11/24 14:10:34;;;;;;;25.37;19.53;;;;;;;;;;4434713;32;20297;-85
2022/11/24 14:13:27;;;;;;;18.73;13.20;;;;;;;;;;4432075;32;20227;-85
2022/11/24 14:16:02;;;;;;;16.80;11.60;;;;;;;;;;4429319;32;20268;-86
2022/11/24 14:18:30;;;;;;;17.40;7.33;;;;;;;;;;4419332;32;20259;-90
2022/11/24 14:21:00;;;;;;;14.57;9.47;;;;;;;;;;4409086;32;20368;-88
2022/11/24 14:23:27;;;;;;;10.80;6.43;;;;;;;;;;4400422;32;20358;-87
2022/11/24 14:25:54;;;;;;;12.70;8.20;;;;;;;;;;4419190;32;20306;-85
2022/11/24 14:28:24;;;;;;;8.53;5.70;;;;;;;;;;4414721;32;20221;-88
2022/11/24 14:31:05;;;;;;;25.40;14.10;;;;;;;;;;4419719;32;20241;-83
2022/11/24 14:33:32;;;;;;;31.03;13.43;;;;;;;;;;4420606;32;20297;-83
2022/11/24 14:36:00;;;;;;;18.87;7.60;;;;;;;;;;4418691;32;20256;-84
2022/11/24 14:38:28;;;;;;;22.17;11.63;;;;;;;;;;4418867;32;20217;-85
2022/11/24 14:40:55;;;;;;;33.47;13.07;;;;;;;;;;4419198;32;20392;-83
2022/11/24 14:43:27;;;;;;;17.87;7.60;;;;;;;;;;4418951;32;20291;-84
2022/11/24 14:45:56;;;;;;;11.33;7.93;;;;;;;;;;4419410;32;20233;-87